Navios Pollux — 3FPO2 — position and weather

sailwx.info

Track history (hours):
 
Tides and Currents Weather Stations Pressure Air Temp Water Temp Dewpoint Dewpoint Depression Visibility Wind Speed Wind Dir Waves Ship Positions

Navios Pollux

Last reported at 2015-Jan-19 01:19 UTC. Time now 2015-Jan-27 03:22 UTC.
Position N 01°16' E 104°12'.
Warning: this ship's position is 8 days out of date.

Length 292 m; draft 18.3 m.

Type: Cargo ship. MMSI: 370290000.

Date/timePositionNaut miles runAvg speedWind from/ knotsBaromVisibWave heightAir tempDewpointWater temp
2015-Jan-19 01:19N 01°16' E 104°12'6 8.2
2015-Jan-19 00:33N 01°16' E 104°05'7 2.2
2015-Jan-18 21:33N 01°17' E 103°59'0 0.0
2015-Jan-18 20:33N 01°17' E 103°59'0 0.0
2015-Jan-18 19:33N 01°17' E 103°59'0 0.0
2015-Jan-18 18:21N 01°17' E 103°59'0 0.0
2015-Jan-18 17:27N 01°17' E 103°59'0 0.0
2015-Jan-18 15:33N 01°17' E 103°59'0 0.1
2015-Jan-18 14:21N 01°17' E 103°59'0 0.1
2015-Jan-18 13:33N 01°17' E 103°59'0 0.0
2015-Jan-18 12:15N 01°17' E 103°59'0 0.0
2015-Jan-18 11:27N 01°17' E 103°59'0 0.1
2015-Jan-18 10:09N 01°17' E 103°59'0 0.3
2015-Jan-18 09:33N 01°17' E 103°59'0 0.1
2015-Jan-18 08:15N 01°17' E 103°59'0 0.1
2015-Jan-18 07:33N 01°17' E 103°59'1 0.6
2015-Jan-18 06:33N 01°16' E 103°59'3 3.3
2015-Jan-18 05:34N 01°14' E 103°57'8 7.7
2015-Jan-18 04:33N 01°11' E 103°50'10 8.4
2015-Jan-18 03:18N 01°05' E 103°41'64 8.9
2015-Jan-17 20:06N 01°38' E 102°47'8 9.2
2015-Jan-17 19:12N 01°41' E 102°39'6 8.9
2015-Jan-17 18:33N 01°44' E 102°34'9 8.5
2015-Jan-17 17:33N 01°48' E 102°27'9 8.5
2015-Jan-17 16:31N 01°51' E 102°18'  
Track history (hours):
 
Tides and Currents Weather Stations Pressure Air Temp Water Temp Dewpoint Dewpoint Depression Visibility Wind Speed Wind Dir Waves Ship Positions

Navios Pollux

Last reported at 2015-Jan-19 01:19 UTC. Time now 2015-Jan-27 03:22 UTC.
Position N 01°16' E 104°12'.
Warning: this ship's position is 8 days out of date.

Length 292 m; draft 18.3 m.

Type: Cargo ship. MMSI: 370290000.

Date/timePositionNaut miles runAvg speedWind from/ knotsBaromVisibWave heightAir tempDewpointWater temp
2015-Jan-19 01:19N 01°16' E 104°12'6 8.2
2015-Jan-19 00:33N 01°16' E 104°05'7 2.2
2015-Jan-18 21:33N 01°17' E 103°59'0 0.0
2015-Jan-18 20:33N 01°17' E 103°59'0 0.0
2015-Jan-18 19:33N 01°17' E 103°59'0 0.0
2015-Jan-18 18:21N 01°17' E 103°59'0 0.0
2015-Jan-18 17:27N 01°17' E 103°59'0 0.0
2015-Jan-18 15:33N 01°17' E 103°59'0 0.1
2015-Jan-18 14:21N 01°17' E 103°59'0 0.1
2015-Jan-18 13:33N 01°17' E 103°59'0 0.0
2015-Jan-18 12:15N 01°17' E 103°59'0 0.0
2015-Jan-18 11:27N 01°17' E 103°59'0 0.1
2015-Jan-18 10:09N 01°17' E 103°59'0 0.3
2015-Jan-18 09:33N 01°17' E 103°59'0 0.1
2015-Jan-18 08:15N 01°17' E 103°59'0 0.1
2015-Jan-18 07:33N 01°17' E 103°59'1 0.6
2015-Jan-18 06:33N 01°16' E 103°59'3 3.3
2015-Jan-18 05:34N 01°14' E 103°57'8 7.7
2015-Jan-18 04:33N 01°11' E 103°50'10 8.4
2015-Jan-18 03:18N 01°05' E 103°41'64 8.9
2015-Jan-17 20:06N 01°38' E 102°47'8 9.2
2015-Jan-17 19:12N 01°41' E 102°39'6 8.9
2015-Jan-17 18:33N 01°44' E 102°34'9 8.5
2015-Jan-17 17:33N 01°48' E 102°27'9 8.5
2015-Jan-17 16:31N 01°51' E 102°18'  

Dump ship's entire track history